This is the latest recevied weather packets stored in our database for station/object DL3MEB-6. If no packets are shown the sender has not sent any weather packets the latest 10 day(s).
| Time | Temp. | Humidity | Pressure | Rain* | Wind** | Luminosity | Snow |
|---|---|---|---|---|---|---|---|
| 1778150782 | 12.78° C | 69% | 1013.7 hPa | 0 mm | - | - | - |
| 1778150158 | 12.78° C | 67% | 1013.6 hPa | 0 mm | - | - | - |
| 1778149877 | 12.78° C | 67% | 1013.6 hPa | 0 mm | - | - | - |
| 1778148970 | 12.22° C | 74% | 1013.7 hPa | 0 mm | - | - | - |
| 1778148064 | 12.22° C | 76% | 1013.6 hPa | 0 mm | - | - | - |
| 1778147158 | 12.22° C | 78% | 1013.3 hPa | 0 mm | - | - | - |
| 1778146258 | 12.78° C | 69% | 1013.1 hPa | 0 mm | - | - | - |
| 1778145349 | 12.78° C | 69% | 1012.9 hPa | 0 mm | - | - | - |
| 1778144442 | 12.78° C | 70% | 1012.8 hPa | 0 mm | - | - | - |
| 1778144440 | 12.78° C | 70% | 1012.8 hPa | 0 mm | - | - | - |
| 1778143532 | 12.78° C | 70% | 1012.7 hPa | 0 mm | - | - | - |
| 1778142623 | 12.78° C | 70% | 1012.6 hPa | 0 mm | - | - | - |
| 1778141717 | 12.78° C | 72% | 1012.3 hPa | 0 mm | - | - | - |
| 1778140815 | 12.78° C | 72% | 1012.3 hPa | 0 mm | - | - | - |
| 1778139906 | 12.22° C | 73% | 1012.4 hPa | 0 mm | - | - | - |
| 1778139004 | 11.67° C | 76% | 1012.2 hPa | 0 mm | - | - | - |
| 1778138100 | 11.67° C | 77% | 1012.1 hPa | 0 mm | - | - | - |
| 1778137187 | 11.11° C | 77% | 1012 hPa | 0 mm | - | - | - |
| 1778136278 | 11.11° C | 78% | 1011.9 hPa | 0 mm | - | - | - |
| 1778135374 | 10.56° C | 80% | 1011.8 hPa | 0 mm | - | - | - |
| 1778134469 | 10.56° C | 83% | 1011.6 hPa | 0 mm | - | - | - |
| 1778133559 | 10° C | 85% | 1011.5 hPa | 0 mm | - | - | - |
| 1778132656 | 10° C | 86% | 1011.5 hPa | 0 mm | - | - | - |
| 1778131755 | 9.44° C | 86% | 1011.2 hPa | 0 mm | - | - | - |
| 1778130855 | 9.44° C | 86% | 1010.9 hPa | 0 mm | - | - | - |
* Rain latest hour (hover to see other rain measurements)
** Current wind speed in m/s (hover to see current wind gust speed)